Time;durP1;ratioP1;P1;durP2;ratioP2;P2;SDS_P1;SDS_P2;PMS_P1;PMS_P2;Temp;Humidity;BMP_temperature;BMP_pressure;BME280_temperature;BME280_humidity;BME280_pressure;Samples;Min_cycle;Max_cycle;Signal;HPM_P1;HPM_P2
2022/03/19 00:00:45;;;;;;;4.63;2.20;;;;;;;20.48;44.23;104286.03;5051737;28;20277;-59
2022/03/19 00:03:10;;;;;;;5.30;2.20;;;;;;;20.49;44.01;104294.88;5051785;28;20278;-58
2022/03/19 00:05:36;;;;;;;3.95;1.67;;;;;;;20.46;43.97;104297.63;5051110;28;20041;-58
2022/03/19 00:08:01;;;;;;;3.90;1.83;;;;;;;20.44;43.78;104289.72;5052172;28;20107;-59
2022/03/19 00:10:27;;;;;;;5.38;1.60;;;;;;;20.41;43.94;104299.56;5051960;28;20025;-59
2022/03/19 00:12:52;;;;;;;6.00;2.05;;;;;;;20.39;43.95;104299.59;5051120;28;20442;-58
2022/03/19 00:15:18;;;;;;;5.75;2.00;;;;;;;20.37;43.65;104287.38;5053374;28;20048;-59
2022/03/19 00:17:43;;;;;;;4.78;1.90;;;;;;;20.35;43.77;104291.88;5054998;28;20074;-59
2022/03/19 00:20:09;;;;;;;6.20;1.90;;;;;;;20.29;44.07;104283.19;5055190;28;20024;-59
2022/03/19 00:22:36;;;;;;;4.40;1.83;;;;;;;20.30;43.80;104292.03;5055276;28;20060;-58
2022/03/19 00:25:03;;;;;;;5.15;1.98;;;;;;;20.29;43.85;104292.94;5055351;28;20024;-58
2022/03/19 00:27:28;;;;;;;4.22;1.77;;;;;;;20.25;43.89;104283.34;5055009;28;20031;-58
2022/03/19 00:29:53;;;;;;;4.55;1.92;;;;;;;20.21;44.03;104282.63;5055101;28;20021;-58
2022/03/19 00:32:18;;;;;;;4.43;2.00;;;;;;;20.19;43.86;104284.47;5055418;28;20021;-58
2022/03/19 00:34:44;;;;;;;4.28;1.67;;;;;;;20.18;43.92;104288.03;5054494;28;20029;-59
2022/03/19 00:37:09;;;;;;;4.40;1.90;;;;;;;20.15;43.89;104281.97;5055421;28;20029;-59
2022/03/19 00:39:35;;;;;;;4.43;1.75;;;;;;;20.13;44.10;104278.53;5054850;28;20499;-58
2022/03/19 00:42:00;;;;;;;5.20;1.80;;;;;;;20.13;43.99;104271.44;5054710;28;20028;-58
2022/03/19 00:44:25;;;;;;;5.50;1.90;;;;;;;20.11;43.84;104275.94;5055105;28;20104;-59
2022/03/19 00:46:51;;;;;;;4.35;1.95;;;;;;;20.10;43.84;104282.13;5054826;28;20625;-58
2022/03/19 00:49:16;;;;;;;6.68;2.33;;;;;;;20.05;43.83;104269.06;5054783;28;20027;-58
2022/03/19 00:51:42;;;;;;;5.25;1.70;;;;;;;20.05;43.80;104273.50;5055195;28;20116;-58
2022/03/19 00:54:09;;;;;;;4.93;2.00;;;;;;;20.05;43.97;104274.34;5054546;28;20021;-59
2022/03/19 00:56:34;;;;;;;5.70;2.50;;;;;;;20.03;44.06;104276.19;5054820;28;20025;-58
2022/03/19 00:59:00;;;;;;;5.68;2.20;;;;;;;20.02;43.81;104270.97;5054922;28;20021;-58
2022/03/19 01:01:26;;;;;;;6.28;1.98;;;;;;;19.99;43.97;104258.69;5054379;28;20108;-58
2022/03/19 01:03:51;;;;;;;4.40;1.95;;;;;;;19.98;44.00;104264.03;5054796;28;20048;-58
2022/03/19 01:06:17;;;;;;;4.15;2.00;;;;;;;19.96;44.09;104264.09;5054841;28;20051;-58
2022/03/19 01:08:42;;;;;;;5.82;1.90;;;;;;;19.96;44.10;104269.38;5053934;28;20025;-59
2022/03/19 01:11:08;;;;;;;7.90;2.60;;;;;;;19.94;43.86;104268.59;5054794;28;20025;-59
2022/03/19 01:13:33;;;;;;;6.30;2.30;;;;;;;19.93;44.13;104262.44;5054247;28;20800;-58
2022/03/19 01:15:58;;;;;;;4.88;1.90;;;;;;;19.91;43.80;104260.75;5054155;28;20380;-58
2022/03/19 01:18:24;;;;;;;5.07;1.87;;;;;;;19.92;43.98;104260.69;5054666;28;20174;-58
2022/03/19 01:20:49;;;;;;;5.13;1.92;;;;;;;19.91;44.14;104260.75;5054076;28;20277;-59
2022/03/19 01:23:15;;;;;;;5.95;2.30;;;;;;;19.90;44.04;104259.88;5054008;28;20106;-59
2022/03/19 01:25:40;;;;;;;4.88;1.90;;;;;;;19.88;44.02;104260.84;5053695;28;20031;-59
2022/03/19 01:28:06;;;;;;;4.85;2.00;;;;;;;19.89;44.05;104258.16;5053381;28;20021;-59
2022/03/19 01:30:31;;;;;;;5.05;2.00;;;;;;;19.87;43.93;104254.69;5053785;28;20468;-59
2022/03/19 01:32:56;;;;;;;6.45;2.03;;;;;;;19.85;43.87;104259.19;5054080;28;20112;-59
2022/03/19 01:35:22;;;;;;;5.40;1.97;;;;;;;19.84;44.06;104252.16;5054072;28;20123;-59
2022/03/19 01:37:48;;;;;;;4.97;1.95;;;;;;;19.83;44.06;104253.06;5053385;28;20336;-59
2022/03/19 01:40:15;;;;;;;5.82;2.03;;;;;;;19.83;44.17;104252.22;5054029;28;20021;-59
2022/03/19 01:42:44;;;;;;;5.85;2.17;;;;;;;19.81;43.56;104248.78;5053487;28;20040;-59
2022/03/19 01:45:14;;;;;;;5.97;2.47;;;;;;;19.81;43.90;104246.13;5053636;28;20017;-59
2022/03/19 01:47:40;;;;;;;5.63;1.98;;;;;;;19.80;44.13;104242.59;5053888;28;20033;-59
2022/03/19 01:50:07;;;;;;;3.75;2.03;;;;;;;19.81;43.70;104246.97;5053793;28;20124;-58
2022/03/19 01:52:33;;;;;;;5.07;2.25;;;;;;;19.77;43.87;104234.75;5053303;28;20035;-59
2022/03/19 01:54:59;;;;;;;5.43;2.10;;;;;;;19.78;43.85;104246.22;5053714;28;20111;-59
2022/03/19 01:57:30;;;;;;;4.75;1.75;;;;;;;19.77;44.05;104248.00;5053234;28;20053;-59
2022/03/19 01:59:57;;;;;;;5.90;2.17;;;;;;;19.73;44.17;104241.06;5053341;28;20432;-59
2022/03/19 02:02:25;;;;;;;6.00;2.38;;;;;;;19.74;44.14;104234.81;5053356;28;20349;-59
2022/03/19 02:04:52;;;;;;;4.85;2.15;;;;;;;19.73;43.83;104235.75;5052611;28;20021;-58
2022/03/19 02:07:17;;;;;;;5.05;2.13;;;;;;;19.72;43.72;104231.38;5053473;28;20036;-58
2022/03/19 02:09:42;;;;;;;5.60;2.15;;;;;;;19.70;43.66;104228.78;5053087;28;20021;-58
2022/03/19 02:12:08;;;;;;;6.20;2.10;;;;;;;19.70;43.90;104228.78;5052729;28;20045;-61
2022/03/19 02:14:35;;;;;;;6.97;2.13;;;;;;;19.69;43.87;104226.19;5053009;28;20017;-58
2022/03/19 02:17:02;;;;;;;5.65;2.20;;;;;;;19.67;43.95;104218.31;5053301;28;20033;-59
2022/03/19 02:19:27;;;;;;;5.82;2.42;;;;;;;19.64;43.95;104218.41;5052859;28;20025;-59
2022/03/19 02:21:52;;;;;;;4.50;2.38;;;;;;;19.65;44.04;104220.16;5052970;28;20808;-59
2022/03/19 02:27:03;;;;;;;5.53;2.35;;;;;;;19.63;44.08;104210.53;5053110;28;20110;-59
2022/03/19 02:29:28;;;;;;;4.93;2.10;;;;;;;19.62;43.83;104203.53;5053300;28;20037;-59
2022/03/19 02:31:57;;;;;;;6.20;2.20;;;;;;;19.61;44.11;104207.94;5052753;28;20040;-59
2022/03/19 02:34:22;;;;;;;5.47;2.08;;;;;;;19.60;43.68;104203.56;5052482;28;20457;-59
2022/03/19 02:36:48;;;;;;;7.35;2.35;;;;;;;19.60;44.26;104195.63;5052662;28;20120;-58
2022/03/19 02:39:16;;;;;;;5.18;1.95;;;;;;;19.57;44.08;104191.31;5052330;28;20020;-57
2022/03/19 02:41:43;;;;;;;7.05;3.47;;;;;;;19.56;43.95;104199.28;5052337;28;20090;-57
2022/03/19 02:44:09;;;;;;;5.30;2.30;;;;;;;19.56;44.05;104192.22;5053105;28;20091;-58
2022/03/19 02:46:40;;;;;;;5.45;2.33;;;;;;;19.53;43.67;104184.38;5052492;28;20395;-58
2022/03/19 02:49:05;;;;;;;5.38;2.13;;;;;;;19.54;43.83;104186.13;5052872;28;20472;-58
2022/03/19 02:51:35;;;;;;;5.03;2.30;;;;;;;19.53;43.83;104188.81;5052462;28;20040;-57
2022/03/19 02:54:06;;;;;;;5.25;2.13;;;;;;;19.54;43.79;104185.25;5052375;28;20397;-58
2022/03/19 02:56:33;;;;;;;6.07;2.22;;;;;;;19.52;43.93;104190.63;5052819;28;20055;-58
2022/03/19 02:59:03;;;;;;;4.47;2.20;;;;;;;19.49;43.74;104182.78;5052374;28;20464;-58
2022/03/19 03:01:29;;;;;;;5.20;2.33;;;;;;;19.50;43.94;104188.91;5052312;28;20032;-58
2022/03/19 03:03:54;;;;;;;5.43;2.60;;;;;;;19.48;43.95;104178.41;5052551;28;20021;-58
2022/03/19 03:06:20;;;;;;;5.10;2.27;;;;;;;19.46;44.08;104177.59;5052479;28;20395;-59
2022/03/19 03:08:46;;;;;;;3.88;1.92;;;;;;;19.46;43.99;104185.53;5052076;28;20276;-58
2022/03/19 03:11:11;;;;;;;6.05;2.25;;;;;;;19.47;43.93;104191.66;5052621;28;20024;-58
2022/03/19 03:13:36;;;;;;;7.60;2.40;;;;;;;19.45;43.88;104194.38;5051913;28;20041;-58
2022/03/19 03:16:02;;;;;;;6.47;2.65;;;;;;;19.44;43.89;104194.41;5051968;28;20037;-58
2022/03/19 03:18:28;;;;;;;6.18;2.47;;;;;;;19.43;43.60;104196.22;5052665;28;20488;-58
2022/03/19 03:20:53;;;;;;;5.65;2.30;;;;;;;19.39;43.79;104195.47;5051921;28;20075;-58
2022/03/19 03:23:18;;;;;;;6.57;2.40;;;;;;;19.40;44.07;104188.38;5051929;28;20029;-58
2022/03/19 03:25:44;;;;;;;5.97;2.40;;;;;;;19.38;43.87;104185.78;5052262;28;20280;-58
2022/03/19 03:28:09;;;;;;;4.57;2.20;;;;;;;19.41;43.83;104195.41;5052428;28;20021;-58
2022/03/19 03:30:34;;;;;;;6.18;2.50;;;;;;;19.38;43.96;104193.72;5051735;28;20282;-58
2022/03/19 03:33:00;;;;;;;8.60;2.78;;;;;;;19.38;43.92;104191.06;5052592;28;20028;-58
2022/03/19 03:35:25;;;;;;;5.90;2.47;;;;;;;19.38;43.99;104198.16;5052462;28;20461;-58
2022/03/19 03:37:51;;;;;;;6.75;2.42;;;;;;;19.36;44.00;104195.56;5051757;28;20048;-58
2022/03/19 03:40:18;;;;;;;6.13;2.45;;;;;;;19.36;44.09;104192.91;5052676;28;20021;-58
2022/03/19 03:42:44;;;;;;;4.88;1.90;;;;;;;19.35;44.06;104190.31;5051972;28;20076;-58
2022/03/19 03:45:10;;;;;;;6.50;2.58;;;;;;;19.34;43.79;104189.47;5051714;28;20468;-58
2022/03/19 03:47:35;;;;;;;6.65;2.70;;;;;;;19.31;43.84;104183.41;5051811;28;20025;-58
2022/03/19 03:50:00;;;;;;;6.20;2.53;;;;;;;19.30;44.03;104186.97;5052883;28;20064;-58
2022/03/19 03:52:26;;;;;;;5.03;2.60;;;;;;;19.32;43.88;104190.44;5056304;28;20266;-59
2022/03/19 03:54:52;;;;;;;5.30;2.35;;;;;;;19.30;44.15;104192.28;5055545;28;20464;-59
2022/03/19 03:57:18;;;;;;;7.25;2.63;;;;;;;19.28;44.08;104183.50;5055590;28;20044;-56
2022/03/19 03:59:43;;;;;;;5.18;2.17;;;;;;;19.26;43.78;104186.19;5055730;28;20029;-58
2022/03/19 04:02:08;;;;;;;4.57;2.10;;;;;;;19.26;44.06;104177.41;5055822;28;20502;-59
2022/03/19 04:04:34;;;;;;;7.47;2.77;;;;;;;19.27;44.26;104185.28;5055088;28;20079;-59
2022/03/19 04:06:59;;;;;;;7.00;2.70;;;;;;;19.29;44.46;104182.59;5055989;28;20308;-59
2022/03/19 04:09:24;;;;;;;6.23;2.50;;;;;;;19.29;44.50;104174.66;5055478;28;20028;-59
2022/03/19 04:11:49;;;;;;;5.90;2.70;;;;;;;19.35;44.12;104174.47;5054848;28;20376;-59
2022/03/19 04:14:15;;;;;;;6.97;2.70;;;;;;;19.39;44.43;104178.72;5055672;28;20310;-58
2022/03/19 04:16:40;;;;;;;6.18;2.47;;;;;;;19.40;44.22;104170.72;5055193;28;20270;-58
2022/03/19 04:19:05;;;;;;;5.07;2.50;;;;;;;19.45;44.08;104173.22;5055048;28;20100;-58
2022/03/19 04:21:31;;;;;;;7.60;2.78;;;;;;;19.46;43.85;104172.31;5055569;28;20128;-58
2022/03/19 04:23:57;;;;;;;7.30;2.65;;;;;;;19.48;44.02;104170.47;5054971;28;20107;-58
2022/03/19 04:26:22;;;;;;;6.97;2.60;;;;;;;19.49;43.63;104164.25;5054954;28;20056;-58
2022/03/19 04:28:47;;;;;;;6.00;2.73;;;;;;;19.50;43.89;104171.28;5055125;28;20814;-57
2022/03/19 04:31:13;;;;;;;6.55;2.90;;;;;;;19.50;43.87;104173.94;5055232;28;20290;-58
2022/03/19 04:33:38;;;;;;;7.90;2.33;;;;;;;19.51;44.11;104165.06;5054442;28;20021;-58
2022/03/19 04:38:47;;;;;;;6.00;2.58;;;;;;;19.53;43.72;104163.22;5054870;28;20079;-59
2022/03/19 04:41:14;;;;;;;7.33;2.60;;;;;;;19.53;43.61;104167.66;5054815;28;20029;-59
2022/03/19 04:43:39;;;;;;;7.05;2.55;;;;;;;19.52;43.93;104155.38;5054956;28;20345;-59
2022/03/19 04:46:04;;;;;;;8.70;2.72;;;;;;;19.51;43.73;104157.13;5054870;28;20116;-59
2022/03/19 04:48:30;;;;;;;5.43;2.47;;;;;;;19.52;43.71;104160.66;5054746;28;20044;-59
2022/03/19 04:50:55;;;;;;;5.97;2.58;;;;;;;19.51;43.30;104157.13;5054633;28;20642;-59
2022/03/19 04:53:21;;;;;;;6.20;2.63;;;;;;;19.51;43.55;104159.78;5054574;28;20437;-59
2022/03/19 04:55:47;;;;;;;6.93;2.45;;;;;;;19.49;43.24;104151.03;5054512;28;20040;-59
2022/03/19 04:58:13;;;;;;;6.45;2.83;;;;;;;19.48;43.42;104153.72;5054716;28;20057;-59
2022/03/19 05:00:38;;;;;;;6.95;2.72;;;;;;;19.48;43.82;104154.59;5053702;28;20057;-59
2022/03/19 05:03:07;;;;;;;5.40;2.42;;;;;;;19.49;43.67;104153.69;5055067;28;20049;-59
2022/03/19 05:05:33;;;;;;;4.55;2.20;;;;;;;19.52;43.64;104158.00;5054856;28;20043;-59
2022/03/19 05:07:58;;;;;;;5.78;2.30;;;;;;;19.52;44.13;104158.88;5054416;28;20460;-59
2022/03/19 05:13:07;;;;;;;6.20;2.47;;;;;;;19.53;43.83;104147.34;5054256;28;20052;-59
2022/03/19 05:15:33;;;;;;;5.70;2.30;;;;;;;19.54;43.94;104151.72;5054103;28;20029;-59
2022/03/19 05:17:58;;;;;;;6.85;3.08;;;;;;;19.58;43.75;104156.00;5054667;28;20499;-58
2022/03/19 05:20:24;;;;;;;6.78;2.15;;;;;;;19.57;43.65;104159.56;5054142;28;20066;-59
2022/03/19 05:22:49;;;;;;;7.55;2.60;;;;;;;19.59;43.36;104162.16;5053635;28;20028;-58
2022/03/19 05:25:14;;;;;;;6.25;2.55;;;;;;;19.58;43.57;104158.66;5054465;28;20025;-58
2022/03/19 05:27:40;;;;;;;6.70;2.40;;;;;;;19.57;43.30;104159.56;5053681;28;20456;-58
2022/03/19 05:30:06;;;;;;;5.20;2.15;;;;;;;19.55;43.26;104158.75;5054020;28;20036;-59
2022/03/19 05:32:32;;;;;;;6.38;2.38;;;;;;;19.56;43.19;104163.13;5054203;28;20116;-59
2022/03/19 05:34:57;;;;;;;6.28;2.42;;;;;;;19.56;43.20;104165.75;5053608;28;20168;-59
2022/03/19 05:37:22;;;;;;;5.88;2.40;;;;;;;19.58;43.23;104171.00;5053603;28;20491;-59
2022/03/19 05:39:48;;;;;;;10.10;2.75;;;;;;;19.55;43.16;104164.06;5053749;28;20108;-59
2022/03/19 05:42:13;;;;;;;4.85;2.25;;;;;;;19.55;43.30;104164.06;5053582;28;20024;-57
2022/03/19 05:44:39;;;;;;;7.47;2.70;;;;;;;19.55;42.90;104165.81;5053230;28;20037;-57
2022/03/19 05:47:05;;;;;;;6.65;2.58;;;;;;;19.55;43.44;104168.47;5053754;28;20078;-57
2022/03/19 05:49:30;;;;;;;6.07;2.28;;;;;;;19.52;43.31;104164.16;5053721;28;20499;-57
2022/03/19 05:51:57;;;;;;;3.95;1.90;;;;;;;19.52;43.26;104155.38;5052926;28;20112;-57
2022/03/19 05:54:23;;;;;;;6.78;2.90;;;;;;;19.51;43.12;104165.06;5053383;28;20468;-58
2022/03/19 05:56:48;;;;;;;7.55;2.50;;;;;;;19.52;43.56;104168.59;5052762;28;20071;-58
2022/03/19 05:59:14;;;;;;;6.32;2.72;;;;;;;19.51;43.60;104159.78;5053814;28;20548;-58
2022/03/19 06:01:42;;;;;;;6.73;2.57;;;;;;;19.54;43.71;104159.66;5053192;28;20056;-58
2022/03/19 06:04:07;;;;;;;5.78;2.20;;;;;;;19.53;43.60;104154.44;5053232;28;20277;-58
2022/03/19 06:06:34;;;;;;;6.35;2.75;;;;;;;19.55;43.88;104158.75;5053446;28;20021;-57
2022/03/19 06:08:59;;;;;;;6.82;2.38;;;;;;;19.56;44.12;104172.84;5053186;28;20032;-58
2022/03/19 06:11:24;;;;;;;6.83;2.43;;;;;;;19.56;44.56;104171.03;5052667;28;20408;-58
2022/03/19 06:13:49;;;;;;;6.90;2.75;;;;;;;19.59;44.82;104164.81;5052650;28;20361;-58
2022/03/19 06:16:15;;;;;;;5.28;2.03;;;;;;;19.62;44.85;104169.97;5053252;28;20095;-58
2022/03/19 06:18:45;;;;;;;6.85;2.15;;;;;;;19.64;44.93;104176.06;5052412;28;20025;-58
2022/03/19 06:21:11;;;;;;;6.28;2.13;;;;;;;19.68;45.58;104176.84;5053423;28;20063;-58
2022/03/19 06:23:36;;;;;;;6.97;2.33;;;;;;;19.70;45.39;104175.88;5052551;28;20476;-59
2022/03/19 06:26:02;;;;;;;6.35;2.00;;;;;;;19.73;45.50;104173.09;5052632;28;20361;-58
2022/03/19 06:28:27;;;;;;;7.72;2.60;;;;;;;19.77;45.66;104170.38;5053342;28;20029;-59
2022/03/19 06:30:52;;;;;;;6.00;1.97;;;;;;;19.78;45.63;104175.63;5052712;28;20450;-59
2022/03/19 06:33:18;;;;;;;6.27;2.00;;;;;;;19.80;45.76;104175.56;5052532;28;20035;-59
2022/03/19 06:38:29;;;;;;;5.70;2.03;;;;;;;19.86;45.34;104181.50;5052891;28;20039;-58
2022/03/19 06:40:55;;;;;;;6.25;1.70;;;;;;;19.87;45.60;104172.66;5051959;28;20464;-58
2022/03/19 06:43:21;;;;;;;6.93;2.20;;;;;;;19.88;45.66;104182.31;5052811;28;20035;-58
2022/03/19 06:45:46;;;;;;;7.63;2.42;;;;;;;19.90;45.72;104179.59;5052736;28;20021;-58
2022/03/19 06:48:12;;;;;;;5.30;1.77;;;;;;;19.90;45.56;104172.53;5052406;28;20090;-58
2022/03/19 06:50:37;;;;;;;5.40;1.87;;;;;;;19.96;45.19;104181.16;5052229;28;20021;-58
2022/03/19 06:53:03;;;;;;;6.13;2.10;;;;;;;19.97;45.18;104175.81;5052187;28;20301;-58
2022/03/19 06:55:29;;;;;;;5.88;2.00;;;;;;;20.00;45.28;104174.84;5052467;28;20764;-58
2022/03/19 06:57:54;;;;;;;4.45;1.52;;;;;;;20.01;45.64;104173.91;5052421;28;20055;-58
2022/03/19 07:00:19;;;;;;;5.32;1.92;;;;;;;20.05;45.50;104180.84;5052223;28;20041;-58
2022/03/19 07:02:49;;;;;;;5.88;1.80;;;;;;;20.07;45.60;104178.97;5052471;28;20527;-58
2022/03/19 07:05:25;;;;;;;6.18;1.77;;;;;;;20.09;45.20;104183.31;5052262;28;20070;-58
2022/03/19 07:07:52;;;;;;;5.80;1.80;;;;;;;20.10;45.09;104176.22;5051494;28;20450;-58
2022/03/19 07:10:18;;;;;;;5.45;1.50;;;;;;;20.13;44.98;104167.31;5052686;28;20029;-58
2022/03/19 07:12:57;;;;;;;3.17;1.33;;;;;;;20.16;45.20;104176.00;5051988;28;20048;-58
2022/03/19 07:15:24;;;;;;;5.25;1.65;;;;;;;20.17;45.43;104172.44;5051865;28;20036;-58
2022/03/19 07:17:51;;;;;;;4.63;1.70;;;;;;;20.21;45.49;104175.81;5052282;28;20025;-58
2022/03/19 07:20:17;;;;;;;5.40;1.75;;;;;;;20.22;45.52;104174.88;5052274;28;20103;-58
2022/03/19 07:23:01;;;;;;;5.40;1.85;;;;;;;20.22;45.90;104169.59;5051721;28;20108;-58
2022/03/19 07:25:28;;;;;;;5.30;1.85;;;;;;;20.21;45.60;104173.19;5056069;28;20056;-58
2022/03/19 07:27:56;;;;;;;5.40;2.03;;;;;;;20.24;43.73;104181.00;5056322;28;20191;-58
2022/03/19 07:30:21;;;;;;;7.55;2.25;;;;;;;20.24;44.60;104171.28;5056219;28;20025;-58
2022/03/19 07:32:47;;;;;;;6.18;1.70;;;;;;;20.22;44.92;104166.94;5055864;28;20027;-60
2022/03/19 07:35:14;;;;;;;5.57;1.80;;;;;;;20.22;44.95;104172.25;5055973;28;20025;-59
2022/03/19 07:37:41;;;;;;;4.57;1.65;;;;;;;20.24;45.49;104170.41;5056182;28;20025;-58
2022/03/19 07:40:07;;;;;;;5.43;1.60;;;;;;;20.23;45.10;104166.03;5056025;28;20075;-57
2022/03/19 07:42:34;;;;;;;5.80;1.55;;;;;;;20.28;45.13;104158.75;5055735;28;20370;-58
2022/03/19 07:45:00;;;;;;;8.38;2.13;;;;;;;20.25;44.07;104161.53;5056229;28;20048;-58
2022/03/19 07:47:25;;;;;;;6.38;1.95;;;;;;;20.25;44.70;104166.81;5055785;28;20063;-59
2022/03/19 07:49:50;;;;;;;6.82;2.08;;;;;;;20.24;44.94;104162.47;5055418;28;20071;-60
2022/03/19 07:52:16;;;;;;;6.30;2.10;;;;;;;20.23;45.07;104166.03;5056065;28;20032;-59
2022/03/19 07:54:41;;;;;;;6.18;1.70;;;;;;;20.23;45.48;104160.72;5055409;28;20021;-59
2022/03/19 07:57:11;;;;;;;5.30;1.55;;;;;;;20.30;45.41;104164.88;5055359;28;20488;-60
2022/03/19 07:59:37;;;;;;;5.45;1.70;;;;;;;20.38;45.19;104160.16;5055478;28;20025;-60
2022/03/19 08:02:04;;;;;;;5.80;2.13;;;;;;;20.47;45.07;104159.81;5055524;28;20112;-60
2022/03/19 08:04:29;;;;;;;5.28;1.85;;;;;;;20.55;44.52;104159.47;5055348;28;20427;-60
2022/03/19 08:06:55;;;;;;;4.95;1.55;;;;;;;20.64;44.79;104156.50;5055321;28;20027;-60
2022/03/19 08:09:21;;;;;;;4.53;1.60;;;;;;;20.75;44.65;104157.88;5055581;28;20384;-60
2022/03/19 08:11:47;;;;;;;4.93;1.58;;;;;;;20.86;44.42;104160.09;5054720;28;20175;-59
2022/03/19 08:14:17;;;;;;;5.80;1.60;;;;;;;20.93;44.29;104161.53;5055378;28;20496;-59
2022/03/19 08:16:43;;;;;;;5.60;1.60;;;;;;;20.99;44.30;104154.19;5055233;28;20146;-59
2022/03/19 08:19:10;;;;;;;5.32;1.45;;;;;;;21.02;44.43;104153.22;5054761;28;20481;-59
2022/03/19 08:21:36;;;;;;;4.70;1.70;;;;;;;21.02;44.47;104148.75;5054885;28;20407;-59
2022/03/19 08:24:01;;;;;;;5.55;1.60;;;;;;;21.05;44.74;104157.53;5055522;28;20029;-59
2022/03/19 08:26:27;;;;;;;5.15;1.73;;;;;;;21.06;44.70;104161.91;5054768;28;20491;-59
2022/03/19 08:28:53;;;;;;;7.10;1.80;;;;;;;21.06;44.84;104162.78;5054797;28;20032;-59
2022/03/19 08:31:18;;;;;;;4.63;1.60;;;;;;;21.04;44.98;104153.16;5055179;28;20032;-59
2022/03/19 08:33:44;;;;;;;9.02;1.83;;;;;;;21.05;44.99;104160.19;5054992;28;20017;-59
2022/03/19 08:36:09;;;;;;;8.32;1.95;;;;;;;21.04;44.95;104153.16;5054106;28;20025;-60
2022/03/19 08:41:18;;;;;;;5.97;1.75;;;;;;;21.15;44.93;104157.06;5055466;28;20024;-59
2022/03/19 08:43:44;;;;;;;5.35;1.55;;;;;;;21.15;45.08;104153.56;5052554;28;20029;-58
2022/03/19 08:46:10;;;;;;;8.13;1.83;;;;;;;21.16;45.02;104152.63;5054631;28;20435;-58
2022/03/19 08:48:35;;;;;;;7.57;1.80;;;;;;;21.14;44.88;104151.81;5054927;28;20028;-59
2022/03/19 08:51:39;;;;;;;7.97;2.00;;;;;;;21.13;44.89;104153.63;5054893;28;20032;-59
2022/03/19 08:53:46;;;;;;;4.80;1.70;;;;;;;21.21;44.92;104150.66;5053976;28;20385;-60
2022/03/19 08:56:11;;;;;;;5.65;1.70;;;;;;;21.25;44.77;104151.38;5054609;28;20051;-59
2022/03/19 08:58:37;;;;;;;6.13;1.63;;;;;;;21.22;44.72;104141.78;5054423;28;20036;-59
2022/03/19 09:01:03;;;;;;;7.05;1.63;;;;;;;21.28;44.94;104146.78;5054323;28;20468;-60
2022/03/19 09:03:28;;;;;;;10.73;2.13;;;;;;;21.31;44.97;104149.31;5054427;28;20048;-60
2022/03/19 09:05:54;;;;;;;5.78;1.90;;;;;;;21.34;44.99;104153.63;5054400;28;20113;-60
2022/03/19 09:08:19;;;;;;;5.93;1.60;;;;;;;21.35;45.10;104147.41;5054209;28;20025;-59
2022/03/19 09:10:44;;;;;;;7.47;1.75;;;;;;;21.38;45.24;104155.25;5053989;28;20553;-60
2022/03/19 09:13:10;;;;;;;5.68;1.58;;;;;;;21.38;45.32;104147.28;5054424;28;20503;-60
2022/03/19 09:15:35;;;;;;;3.90;1.60;;;;;;;21.38;45.50;104142.81;5053762;28;20033;-61
2022/03/19 09:18:00;;;;;;;6.82;1.75;;;;;;;21.34;44.79;104146.53;5054342;28;20025;-60
2022/03/19 09:20:26;;;;;;;5.45;2.10;;;;;;;21.28;43.52;104133.53;5054316;28;20025;-60
2022/03/19 09:22:51;;;;;;;4.70;1.70;;;;;;;21.26;44.85;104132.75;5053413;28;20431;-60
2022/03/19 09:25:16;;;;;;;5.13;1.67;;;;;;;21.24;44.66;104134.59;5053973;28;20060;-60
2022/03/19 09:27:41;;;;;;;5.40;1.97;;;;;;;21.23;43.66;104132.88;5053823;28;20029;-59
2022/03/19 09:30:08;;;;;;;6.85;2.70;;;;;;;21.19;44.62;104140.09;5054558;28;20281;-59
2022/03/19 09:32:35;;;;;;;5.65;1.80;;;;;;;21.15;44.85;104130.53;5053642;28;20025;-58
2022/03/19 09:35:00;;;;;;;8.02;2.17;;;;;;;21.14;44.84;104135.91;5053449;28;20071;-58
2022/03/19 09:37:26;;;;;;;5.07;1.55;;;;;;;21.11;44.85;104136.03;5054019;28;20416;-59
2022/03/19 09:39:52;;;;;;;6.72;1.80;;;;;;;21.08;44.83;104134.41;5053481;28;20021;-58
2022/03/19 09:42:18;;;;;;;3.90;1.48;;;;;;;21.09;45.05;104124.63;5053397;28;20416;-59
2022/03/19 09:44:43;;;;;;;4.95;1.48;;;;;;;21.09;45.21;104122.00;5053673;28;20029;-60
2022/03/19 09:47:09;;;;;;;5.93;1.70;;;;;;;21.12;45.13;104119.22;5053027;28;20017;-59
2022/03/19 09:49:34;;;;;;;6.97;1.63;;;;;;;21.12;45.28;104113.91;5053026;28;20029;-61
2022/03/19 09:52:02;;;;;;;9.00;1.85;;;;;;;21.14;45.35;104112.91;5053912;28;20049;-60
2022/03/19 09:54:28;;;;;;;6.07;1.63;;;;;;;21.13;45.40;104110.34;5053385;28;20025;-60
2022/03/19 09:56:53;;;;;;;6.38;1.88;;;;;;;21.18;45.67;104113.66;5053253;28;20082;-58
2022/03/19 09:59:22;;;;;;;4.97;1.85;;;;;;;21.20;45.01;104106.47;5053790;28;20077;-58
2022/03/19 10:01:48;;;;;;;9.38;2.10;;;;;;;21.18;44.67;104105.69;5053399;28;20024;-58
2022/03/19 10:04:17;;;;;;;7.93;1.92;;;;;;;21.14;45.18;104098.78;5053337;28;20017;-57
2022/03/19 10:09:45;;;;;;;5.15;1.88;;;;;;;21.08;45.25;104097.28;5053376;28;20047;-58
2022/03/19 10:12:19;;;;;;;6.78;1.60;;;;;;;21.08;45.13;104091.97;5053040;28;20053;-60
2022/03/19 10:14:47;;;;;;;;;;;;;;;21.08;45.36;104091.97;5053230;28;20076;-60
2022/03/19 10:17:30;;;;;;;7.80;1.63;;;;;;;21.10;45.47;104087.44;5052902;28;19913;-60
2022/03/19 10:20:02;;;;;;;6.82;1.70;;;;;;;21.15;45.60;104076.66;5052970;28;20040;-61
2022/03/19 10:22:29;;;;;;;6.13;1.60;;;;;;;21.18;45.41;104077.38;5053173;28;20029;-59
2022/03/19 10:25:09;;;;;;;8.35;1.70;;;;;;;21.14;44.39;104072.25;5052228;28;20487;-58
2022/03/19 10:27:36;;;;;;;5.07;1.60;;;;;;;21.11;45.39;104062.66;5052745;28;20025;-58
2022/03/19 10:30:03;;;;;;;5.80;1.63;;;;;;;21.09;45.94;104059.19;5053264;28;20070;-58
2022/03/19 10:32:29;;;;;;;6.60;1.90;;;;;;;21.09;45.93;104058.34;5052872;28;20029;-58
2022/03/19 10:34:54;;;;;;;5.55;1.92;;;;;;;21.11;44.91;104049.41;5052645;28;20028;-59
2022/03/19 10:37:34;;;;;;;4.87;1.80;;;;;;;21.11;45.02;104051.16;5053324;28;20025;-59
2022/03/19 10:40:00;;;;;;;3.83;1.40;;;;;;;21.11;45.53;104049.41;5052364;28;20468;-60
2022/03/19 10:42:25;;;;;;;5.47;1.90;;;;;;;21.18;45.75;104045.53;5052708;28;20044;-60
2022/03/19 10:44:52;;;;;;;6.03;1.80;;;;;;;21.19;46.43;104034.00;5052809;28;20028;-60
2022/03/19 10:47:22;;;;;;;6.05;1.60;;;;;;;21.20;46.02;104033.09;5052274;28;20288;-59
2022/03/19 10:49:47;;;;;;;7.07;1.88;;;;;;;21.19;46.03;104035.81;5052396;28;20053;-59
2022/03/19 10:52:17;;;;;;;5.63;1.50;;;;;;;21.18;46.13;104028.78;5052360;28;20053;-60
2022/03/19 10:54:43;;;;;;;6.28;1.95;;;;;;;21.18;46.38;104018.16;5052549;28;20044;-60
2022/03/19 10:57:09;;;;;;;5.18;1.60;;;;;;;21.18;46.43;104018.16;5052647;28;20079;-59
2022/03/19 10:59:34;;;;;;;4.40;2.33;;;;;;;21.17;46.64;104019.09;5051847;28;20021;-60
2022/03/19 11:02:01;;;;;;;5.88;1.80;;;;;;;21.18;46.85;104010.22;5053018;28;20044;-59
2022/03/19 11:04:30;;;;;;;7.47;1.70;;;;;;;21.16;46.50;104018.22;5052462;28;20025;-58
2022/03/19 11:06:59;;;;;;;4.95;1.83;;;;;;;21.16;46.56;104001.47;5051664;28;20029;-59
2022/03/19 11:09:29;;;;;;;5.60;1.50;;;;;;;21.16;46.61;104004.97;5052239;28;20372;-60
2022/03/19 11:12:00;;;;;;;5.78;1.85;;;;;;;21.16;46.75;103999.66;5051856;28;20124;-61
2022/03/19 11:14:30;;;;;;;7.28;1.70;;;;;;;21.15;46.95;103991.78;5051854;28;20072;-60
2022/03/19 11:17:25;;;;;;;3.53;1.55;;;;;;;21.17;46.92;103989.91;5052205;28;20032;-59
2022/03/19 11:19:55;;;;;;;5.38;1.48;;;;;;;21.15;47.13;103981.16;5052112;28;20028;-59
2022/03/19 11:22:21;;;;;;;7.20;1.83;;;;;;;21.16;46.69;103980.25;5052140;28;20025;-60
2022/03/19 11:24:55;;;;;;;7.40;1.70;;;;;;;21.14;46.85;103971.47;5052016;28;20064;-59
2022/03/19 11:27:22;;;;;;;;;;;;;;;21.14;46.52;103968.81;5052527;28;20029;-60
2022/03/19 11:29:47;;;;;;;5.78;1.23;;;;;;;21.10;46.39;103965.47;5052255;28;19916;-59
2022/03/19 11:32:24;;;;;;;6.00;1.85;;;;;;;21.09;44.65;103961.06;5052184;28;20017;-60
2022/03/19 11:34:51;;;;;;;7.57;2.47;;;;;;;21.10;45.95;103961.97;5051751;28;20025;-62
2022/03/19 11:37:16;;;;;;;4.68;1.70;;;;;;;21.08;46.23;103955.84;5052550;28;20123;-58
2022/03/19 11:40:02;;;;;;;5.55;1.60;;;;;;;21.01;46.72;103953.50;5052058;28;20048;-59